createdAt,value
2023-01-02T00:00:21.394Z,102515.06
2023-01-02T00:05:18.358Z,102525.50
2023-01-02T00:10:15.601Z,102529.03
2023-01-02T00:15:12.437Z,102516.97
2023-01-02T00:20:10.731Z,102519.66
2023-01-02T00:25:08.083Z,102535.31
2023-01-02T00:30:05.741Z,102524.81
2023-01-02T00:35:02.664Z,102534.47
2023-01-02T00:40:00.193Z,102504.22
2023-01-02T00:44:57.039Z,102537.22
2023-01-02T00:49:55.001Z,102480.84
2023-01-02T00:54:51.714Z,102475.66
2023-01-02T00:59:49.202Z,102513.69
2023-01-02T01:04:47.421Z,102482.50
2023-01-02T01:09:44.419Z,102445.31
2023-01-02T01:14:41.249Z,102519.00
2023-01-02T01:19:38.895Z,102489.44
2023-01-02T01:24:35.671Z,102500.75
2023-01-02T01:29:34.183Z,102496.38
2023-01-02T01:34:31.068Z,102495.50
2023-01-02T01:39:28.579Z,102465.16
2023-01-02T01:44:46.254Z,102406.31
2023-01-02T01:49:44.348Z,102482.56
2023-01-02T01:54:46.630Z,102487.84
2023-01-02T01:59:46.706Z,102464.53
2023-01-02T02:04:45.266Z,102474.06
2023-01-02T02:09:47.227Z,102441.19
2023-01-02T02:14:44.245Z,102477.53
2023-01-02T02:20:07.922Z,102462.81
2023-01-02T02:25:46.140Z,102428.97
2023-01-02T02:30:53.029Z,102430.81
2023-01-02T02:36:01.168Z,102465.34
2023-01-02T02:41:10.198Z,102468.81
2023-01-02T02:46:15.199Z,102461.00
2023-01-02T02:51:19.173Z,102452.28
2023-01-02T02:56:18.414Z,102436.72
2023-01-02T03:01:18.876Z,102456.66
2023-01-02T03:06:33.729Z,102447.22
2023-01-02T03:11:43.442Z,102434.19
2023-01-02T03:16:43.448Z,102442.06
2023-01-02T03:21:42.999Z,102427.41
2023-01-02T03:26:43.639Z,102467.31
2023-01-02T03:31:44.294Z,102432.72
2023-01-02T03:36:43.127Z,102459.66
2023-01-02T03:41:44.555Z,102470.09
2023-01-02T03:46:49.205Z,102393.91
2023-01-02T03:51:46.239Z,102418.09
2023-01-02T03:56:52.689Z,102474.53
2023-01-02T04:01:56.711Z,102506.63
2023-01-02T04:06:59.749Z,102513.63
2023-01-02T04:12:01.999Z,102472.09
2023-01-02T04:17:03.704Z,102519.09
2023-01-02T04:22:07.174Z,102506.19
2023-01-02T04:27:09.167Z,102536.72
2023-01-02T04:32:11.561Z,102540.22
2023-01-02T04:37:08.368Z,102533.16
2023-01-02T04:42:05.191Z,102524.38
2023-01-02T04:47:02.047Z,102451.56
2023-01-02T04:51:59.606Z,102524.38
2023-01-02T04:56:56.469Z,102534.84
2023-01-02T05:01:53.495Z,102514.91
2023-01-02T05:06:50.396Z,102537.47
2023-01-02T05:11:47.821Z,102524.56
2023-01-02T05:16:44.610Z,102533.25
2023-01-02T05:22:11.137Z,102502.88
2023-01-02T05:27:08.603Z,102556.69
2023-01-02T05:32:05.805Z,102486.41
2023-01-02T05:37:02.777Z,102537.53
2023-01-02T05:42:00.120Z,102557.53
2023-01-02T05:46:57.652Z,102548.00
2023-01-02T05:51:54.558Z,102558.41
2023-01-02T05:56:51.308Z,102554.00
2023-01-02T06:01:48.323Z,102554.88
2023-01-02T06:06:46.502Z,102545.31
2023-01-02T06:11:43.765Z,102536.69
2023-01-02T06:16:40.595Z,102494.97
2023-01-02T06:21:37.523Z,102552.19
2023-01-02T06:26:35.654Z,102526.97
2023-01-02T06:31:32.834Z,102524.31
2023-01-02T06:36:31.339Z,102533.03
2023-01-02T06:41:28.370Z,102496.53
2023-01-02T06:46:26.064Z,102557.31
2023-01-02T06:51:23.868Z,102512.97
2023-01-02T06:56:22.230Z,102498.16
2023-01-02T07:01:21.431Z,102532.78
2023-01-02T07:06:33.240Z,102468.56
2023-01-02T07:11:30.209Z,102441.53
2023-01-02T07:16:30.996Z,102552.44
2023-01-02T07:21:30.148Z,102533.28
2023-01-02T07:26:27.493Z,102516.63
2023-01-02T07:31:24.443Z,102552.97
2023-01-02T07:36:22.316Z,102494.72
2023-01-02T07:41:28.849Z,102508.34
2023-01-02T07:46:26.336Z,102502.06
2023-01-02T07:51:27.627Z,102475.75
2023-01-02T07:56:28.793Z,102443.53
2023-01-02T08:01:25.812Z,102433.78
2023-01-02T08:06:23.060Z,102540.19
2023-01-02T08:11:22.108Z,102499.22
2023-01-02T08:16:22.204Z,102521.59
2023-01-02T08:21:19.377Z,102486.72
2023-01-02T08:26:16.794Z,102549.63
2023-01-02T08:31:15.714Z,102500.72
2023-01-02T08:36:17.694Z,102435.50
2023-01-02T08:41:39.987Z,102543.16
2023-01-02T08:46:42.175Z,102516.75
2023-01-02T08:51:40.578Z,102527.59
2023-01-02T08:56:39.278Z,102522.09
2023-01-02T09:01:40.200Z,102472.56
2023-01-02T09:06:37.715Z,102492.94
2023-01-02T09:11:38.785Z,102509.81
2023-01-02T09:16:44.296Z,102505.22
2023-01-02T09:21:41.848Z,102466.22
2023-01-02T09:26:42.274Z,102479.03
2023-01-02T09:31:40.283Z,102427.72
2023-01-02T09:36:37.219Z,102370.44
2023-01-02T09:41:36.855Z,102403.97
2023-01-02T09:46:40.943Z,102403.75
2023-01-02T09:51:38.142Z,102469.97
2023-01-02T09:56:43.663Z,102456.81
2023-01-02T10:01:54.961Z,102441.16
2023-01-02T10:07:03.263Z,102468.63
2023-01-02T10:12:07.567Z,102463.16
2023-01-02T10:17:08.209Z,102342.94
2023-01-02T10:22:07.933Z,102347.66
2023-01-02T10:27:11.537Z,102431.97
2023-01-02T10:32:15.259Z,102392.75
2023-01-02T10:37:14.710Z,102432.00
2023-01-02T10:42:14.733Z,102361.56
2023-01-02T10:47:19.564Z,102388.75
2023-01-02T10:52:23.665Z,102417.69
2023-01-02T10:57:30.366Z,102393.06
2023-01-02T11:02:31.192Z,102293.50
2023-01-02T11:07:31.516Z,102299.00
2023-01-02T11:12:28.532Z,102373.63
2023-01-02T11:17:29.488Z,102391.47
2023-01-02T11:22:35.906Z,102334.66
2023-01-02T11:27:35.717Z,102371.03
2023-01-02T11:32:38.726Z,102354.81
2023-01-02T11:37:36.899Z,102314.53
2023-01-02T11:42:59.136Z,102308.75
2023-01-02T11:47:59.966Z,102309.34
2023-01-02T11:53:01.469Z,102293.78
2023-01-02T11:58:06.107Z,102289.59
2023-01-02T12:03:06.559Z,102307.97
2023-01-02T12:08:09.874Z,102224.38
2023-01-02T12:13:21.639Z,102271.78
2023-01-02T12:18:32.367Z,102277.47
2023-01-02T12:24:09.664Z,102312.25
2023-01-02T12:29:48.842Z,102316.41
2023-01-02T12:35:47.241Z,102314.38
2023-01-02T12:40:56.579Z,102248.88
2023-01-02T12:46:07.424Z,102242.72
2023-01-02T12:51:15.996Z,102284.97
2023-01-02T12:56:21.595Z,102270.44
2023-01-02T13:01:23.953Z,102287.06
2023-01-02T13:06:43.541Z,102315.72
2023-01-02T13:11:48.583Z,102309.16
2023-01-02T13:16:50.737Z,102303.47
2023-01-02T13:21:52.429Z,102304.09
2023-01-02T13:26:51.438Z,102300.38
2023-01-02T13:31:51.647Z,102289.81
2023-01-02T13:36:49.614Z,102213.25
2023-01-02T13:42:09.589Z,102262.63
2023-01-02T13:47:25.730Z,102233.22
2023-01-02T13:52:24.841Z,102296.50
2023-01-02T13:58:08.240Z,102263.47
2023-01-02T14:03:36.669Z,102291.69
2023-01-02T14:08:35.440Z,102238.94
2023-01-02T14:13:40.388Z,102242.84
2023-01-02T14:18:46.836Z,102280.50
2023-01-02T14:24:16.422Z,102214.84
2023-01-02T14:29:10.321Z,102281.78
2023-01-02T14:34:10.337Z,102277.06
2023-01-02T14:39:18.046Z,102264.50
2023-01-02T14:44:15.669Z,102247.06
2023-01-02T14:49:24.818Z,102242.31
2023-01-02T14:54:27.443Z,102261.06
2023-01-02T14:59:28.622Z,102262.72
2023-01-02T15:04:39.428Z,102211.88
2023-01-02T15:09:40.920Z,102167.72
2023-01-02T15:14:39.225Z,102273.34
2023-01-02T15:19:41.699Z,102208.34
2023-01-02T15:24:48.022Z,102142.66
2023-01-02T15:29:47.489Z,102255.06
2023-01-02T15:34:49.881Z,102224.50
2023-01-02T15:39:49.206Z,102253.38
2023-01-02T15:45:06.984Z,102259.78
2023-01-02T15:50:12.674Z,102272.47
2023-01-02T15:55:14.466Z,102261.59
2023-01-02T16:00:30.429Z,102285.31
2023-01-02T16:05:29.001Z,102266.06
2023-01-02T16:10:28.194Z,102290.41
2023-01-02T16:15:29.198Z,102265.69
2023-01-02T16:20:29.599Z,102289.28
2023-01-02T16:25:31.229Z,102205.75
2023-01-02T16:30:41.092Z,102216.44
2023-01-02T16:35:39.398Z,102230.50
2023-01-02T16:41:01.458Z,102282.56
2023-01-02T16:45:59.781Z,102195.69
2023-01-02T16:51:18.371Z,102292.44
2023-01-02T16:56:21.651Z,102230.59
2023-01-02T17:01:20.425Z,102240.31
2023-01-02T17:07:22.811Z,102268.16
2023-01-02T17:12:21.341Z,102223.50
2023-01-02T17:17:18.209Z,102292.69
2023-01-02T17:22:15.211Z,102253.88
2023-01-02T17:27:12.428Z,102271.34
2023-01-02T17:32:09.954Z,102276.59
2023-01-02T17:37:07.026Z,102267.19
2023-01-02T17:42:04.226Z,102275.91
2023-01-02T17:47:30.679Z,102243.97
2023-01-02T17:52:19.816Z,102217.41
2023-01-02T17:57:16.622Z,102245.84
2023-01-02T18:02:15.693Z,102249.34
2023-01-02T18:07:14.003Z,102278.78
2023-01-02T18:12:12.348Z,102250.38
2023-01-02T18:17:13.631Z,102241.78
2023-01-02T18:22:14.991Z,102216.84
2023-01-02T18:27:23.682Z,102265.31
2023-01-02T18:32:27.854Z,102271.44
2023-01-02T18:37:26.676Z,102232.56
2023-01-02T18:42:26.424Z,102261.84
2023-01-02T18:47:28.108Z,102262.78
2023-01-02T18:52:27.170Z,102269.00
2023-01-02T18:57:35.657Z,102263.84
2023-01-02T19:02:39.077Z,102253.59
2023-01-02T19:07:39.244Z,102263.91
2023-01-02T19:13:06.744Z,102263.16
2023-01-02T19:18:46.805Z,102201.97
2023-01-02T19:23:47.512Z,102150.31
2023-01-02T19:29:06.909Z,102267.84
2023-01-02T19:34:16.831Z,102205.84
2023-01-02T19:39:25.106Z,102198.81
2023-01-02T19:44:24.420Z,102264.53
2023-01-02T19:49:24.265Z,102238.81
2023-01-02T19:54:21.621Z,102192.16
2023-01-02T19:59:18.640Z,102263.91
2023-01-02T20:04:16.870Z,102268.34
2023-01-02T20:09:13.747Z,102209.66
2023-01-02T20:14:10.787Z,102115.59
2023-01-02T20:19:07.849Z,102259.91
2023-01-02T20:24:06.094Z,102205.56
2023-01-02T20:29:05.082Z,102259.16
2023-01-02T20:34:11.143Z,102229.75
2023-01-02T20:39:16.467Z,102238.34
2023-01-02T20:44:18.240Z,102176.25
2023-01-02T20:49:15.164Z,102177.19
2023-01-02T20:54:12.638Z,102250.72
2023-01-02T20:59:09.644Z,102231.69
2023-01-02T21:04:09.795Z,102244.59
2023-01-02T21:09:23.153Z,102137.44
2023-01-02T21:14:19.927Z,102165.16
2023-01-02T21:19:16.786Z,102206.66
2023-01-02T21:24:13.661Z,102220.50
2023-01-02T21:29:11.291Z,102160.06
2023-01-02T21:34:08.084Z,102237.91
2023-01-02T21:39:05.132Z,102194.69
2023-01-02T21:44:01.893Z,102227.59
2023-01-02T21:48:59.459Z,102152.41
2023-01-02T21:53:56.191Z,102175.94
2023-01-02T21:58:54.367Z,102227.78
2023-01-02T22:03:51.918Z,102222.59
2023-01-02T22:08:49.443Z,102172.50
2023-01-02T22:13:46.338Z,102220.94
2023-01-02T22:18:43.121Z,102216.59
2023-01-02T22:23:39.876Z,102207.09
2023-01-02T22:28:37.412Z,102203.59
2023-01-02T22:33:36.073Z,102169.09
2023-01-02T22:38:33.027Z,102162.22
2023-01-02T22:43:34.910Z,102191.63
2023-01-02T22:48:34.579Z,102193.34
2023-01-02T22:53:33.583Z,102192.56
2023-01-02T22:58:30.359Z,102183.81
2023-01-02T23:03:29.049Z,102184.72
2023-01-02T23:08:26.667Z,102180.44
2023-01-02T23:13:23.593Z,102177.03
2023-01-02T23:18:38.093Z,102171.88
2023-01-02T23:23:35.727Z,102170.16
2023-01-02T23:29:05.404Z,102167.56
2023-01-02T23:33:49.732Z,102157.19
2023-01-02T23:38:47.158Z,102145.16
2023-01-02T23:43:44.009Z,102170.25
2023-01-02T23:48:40.807Z,102164.16
2023-01-02T23:53:37.629Z,102146.94
2023-01-02T23:58:35.767Z,102169.47
